Time;durP1;ratioP1;P1;durP2;ratioP2;P2;SDS_P1;SDS_P2;PMS_P1;PMS_P2;Temp;Humidity;BMP_temperature;BMP_pressure;BME280_temperature;BME280_humidity;BME280_pressure;Samples;Min_cycle;Max_cycle;Signal;HPM_P1;HPM_P2
2022/07/18 00:01:37;;;;;;;1.85;1.02;;;;;;;14.32;78.99;100750.47;1732839;83;21065;-59
2022/07/18 00:04:07;;;;;;;3.17;1.22;;;;;;;14.28;79.00;100747.27;1711277;83;21061;-59
2022/07/18 00:06:38;;;;;;;2.98;0.95;;;;;;;14.29;79.19;100748.95;1701127;84;21038;-58
2022/07/18 00:09:08;;;;;;;4.10;1.25;;;;;;;14.32;79.22;100762.03;1699008;84;21040;-57
2022/07/18 00:11:38;;;;;;;1.20;0.90;;;;;;;14.34;79.39;100762.66;1700990;82;21038;-58
2022/07/18 00:14:09;;;;;;;4.58;1.15;;;;;;;14.35;79.42;100761.61;1719412;82;21989;-60
2022/07/18 00:16:38;;;;;;;2.00;0.93;;;;;;;14.34;79.43;100755.77;1710035;82;21063;-59
2022/07/18 00:19:08;;;;;;;2.42;1.12;;;;;;;14.34;79.41;100754.39;1708283;84;21062;-58
2022/07/18 00:21:38;;;;;;;2.05;1.07;;;;;;;14.28;79.44;100753.31;1708356;84;21144;-59
2022/07/18 00:24:08;;;;;;;1.90;1.10;;;;;;;14.27;79.50;100751.08;1707452;83;21035;-58
2022/07/18 00:26:37;;;;;;;3.58;1.20;;;;;;;14.29;79.61;100749.48;1703185;84;21113;-58
2022/07/18 00:29:08;;;;;;;1.92;1.05;;;;;;;14.32;79.56;100749.63;1703427;84;21026;-60
2022/07/18 00:31:38;;;;;;;1.10;1.00;;;;;;;14.29;79.53;100750.34;1703238;84;21030;-58
2022/07/18 00:34:10;;;;;;;1.15;0.90;;;;;;;14.26;79.69;100752.14;1706984;82;21456;-58
2022/07/18 00:36:41;;;;;;;3.00;1.00;;;;;;;14.27;79.72;100752.46;1708552;84;21042;-58
2022/07/18 00:39:11;;;;;;;1.80;1.10;;;;;;;14.26;79.62;100756.28;1705826;84;21082;-59
2022/07/18 00:41:42;;;;;;;1.75;1.02;;;;;;;14.22;79.66;100756.91;1703245;84;21053;-58
2022/07/18 00:44:17;;;;;;;1.75;0.93;;;;;;;14.20;79.82;100758.51;1701799;84;21560;-59
2022/07/18 00:46:48;;;;;;;2.02;0.80;;;;;;;14.20;79.98;100771.44;1701445;84;21567;-59
2022/07/18 00:49:18;;;;;;;2.72;1.00;;;;;;;14.20;79.83;100768.16;1674595;84;21074;-58
2022/07/18 00:51:48;;;;;;;1.90;1.12;;;;;;;14.17;79.81;100764.98;1697027;83;21035;-59
2022/07/18 00:54:19;;;;;;;2.77;1.27;;;;;;;14.12;79.95;100764.23;1703168;84;21046;-59
2022/07/18 00:56:50;;;;;;;1.85;1.12;;;;;;;14.10;80.19;100775.15;1703233;84;21010;-59
2022/07/18 00:59:20;;;;;;;3.33;1.30;;;;;;;14.07;80.28;100769.53;1719024;83;21094;-58
2022/07/18 01:01:50;;;;;;;1.55;1.05;;;;;;;14.03;80.31;100775.15;1727606;83;21070;-60
2022/07/18 01:04:22;;;;;;;1.72;1.30;;;;;;;14.05;80.40;100774.94;1727732;83;21408;-59
2022/07/18 01:06:52;;;;;;;2.80;1.17;;;;;;;14.03;80.49;100766.88;1727679;83;21066;-59
2022/07/18 01:09:22;;;;;;;1.40;1.22;;;;;;;14.06;80.60;100774.73;1727717;83;21010;-60
2022/07/18 01:11:53;;;;;;;2.50;1.22;;;;;;;14.06;80.65;100772.50;1727773;83;21035;-58
2022/07/18 01:14:22;;;;;;;1.55;1.10;;;;;;;14.06;80.62;100773.88;1712921;83;20994;-58
2022/07/18 01:16:52;;;;;;;2.52;1.10;;;;;;;14.05;80.57;100775.78;1703143;84;21046;-60
2022/07/18 01:19:22;;;;;;;1.62;1.20;;;;;;;14.04;80.70;100774.09;1694134;84;21085;-58
2022/07/18 01:21:52;;;;;;;3.52;1.20;;;;;;;14.03;80.76;100777.91;1695669;84;21046;-58
2022/07/18 01:24:24;;;;;;;3.05;1.12;;;;;;;14.02;80.90;100777.59;1696396;83;21070;-58
2022/07/18 01:26:53;;;;;;;2.08;1.07;;;;;;;14.01;80.92;100778.64;1702923;84;21038;-59
2022/07/18 01:29:22;;;;;;;1.98;1.30;;;;;;;14.02;80.91;100779.49;1703122;84;21026;-58
2022/07/18 01:31:53;;;;;;;2.33;1.40;;;;;;;14.02;80.87;100787.77;1715245;83;21066;-59
2022/07/18 01:34:23;;;;;;;4.10;1.50;;;;;;;13.98;80.93;100795.59;1710239;83;21085;-59
2022/07/18 01:36:53;;;;;;;2.00;1.40;;;;;;;13.92;81.04;100788.17;1703233;84;21466;-58
2022/07/18 01:39:24;;;;;;;1.77;1.10;;;;;;;13.88;81.07;100794.63;1704648;83;21085;-59
2022/07/18 01:42:00;;;;;;;1.92;1.20;;;;;;;13.87;81.24;100793.47;1703706;84;21034;-58
2022/07/18 01:44:31;;;;;;;3.65;1.25;;;;;;;13.85;81.21;100783.19;1703384;84;21062;-58
2022/07/18 01:47:00;;;;;;;1.82;1.50;;;;;;;13.80;81.32;100788.47;1703068;84;21054;-59
2022/07/18 01:49:30;;;;;;;1.27;1.17;;;;;;;13.79;81.44;100788.16;1703172;84;21065;-59
2022/07/18 01:52:00;;;;;;;2.25;1.57;;;;;;;13.79;81.57;100791.76;1703163;84;21027;-59
2022/07/18 01:54:31;;;;;;;2.80;1.30;;;;;;;13.83;81.52;100794.41;1706698;82;21584;-61
2022/07/18 01:57:01;;;;;;;5.05;1.40;;;;;;;13.85;81.45;100785.94;1737870;82;21462;-58
2022/07/18 01:59:31;;;;;;;1.50;1.20;;;;;;;13.81;81.50;100792.92;1735865;82;21030;-60
2022/07/18 02:02:02;;;;;;;2.55;1.45;;;;;;;13.79;81.59;100792.29;1737917;82;21481;-58
2022/07/18 02:07:20;;;;;;;2.95;1.30;;;;;;;13.79;81.76;100804.68;1732842;83;21443;-60
2022/07/18 02:09:49;;;;;;;1.90;1.20;;;;;;;13.80;81.72;100811.89;1733032;83;21101;-58
2022/07/18 02:12:19;;;;;;;3.60;1.40;;;;;;;13.80;81.79;100820.15;1732843;83;21678;-58
2022/07/18 02:14:49;;;;;;;3.15;1.20;;;;;;;13.77;81.82;100816.44;1725764;82;21058;-59
2022/07/18 02:17:20;;;;;;;2.60;1.45;;;;;;;13.70;81.95;100815.58;1701198;84;21553;-59
2022/07/18 02:19:49;;;;;;;3.08;1.45;;;;;;;13.68;82.04;100808.05;1708901;82;21403;-60
2022/07/18 02:22:20;;;;;;;3.70;1.35;;;;;;;13.67;82.03;100803.59;1708217;84;21005;-59
2022/07/18 02:24:49;;;;;;;2.45;1.67;;;;;;;13.64;82.13;100806.20;1708279;84;21482;-58
2022/07/18 02:27:19;;;;;;;2.05;1.60;;;;;;;13.61;82.24;100808.00;1708167;84;21081;-59
2022/07/18 02:29:49;;;;;;;4.47;1.65;;;;;;;13.58;82.39;100810.64;1715644;82;21045;-59
2022/07/18 02:32:20;;;;;;;1.82;1.30;;;;;;;13.57;82.45;100812.22;1738019;82;21022;-58
2022/07/18 02:34:49;;;;;;;2.72;1.30;;;;;;;13.57;82.55;100810.31;1737905;82;21026;-58
2022/07/18 02:37:20;;;;;;;2.22;1.50;;;;;;;13.57;82.66;100818.58;1703070;82;21125;-59
2022/07/18 02:39:50;;;;;;;4.30;1.60;;;;;;;13.58;82.78;100818.05;1698833;83;21141;-60
2022/07/18 02:42:19;;;;;;;2.17;1.40;;;;;;;13.60;82.77;100818.16;1695691;84;21066;-59
2022/07/18 02:44:49;;;;;;;2.65;1.30;;;;;;;13.63;82.60;100823.26;1695592;84;21086;-59
2022/07/18 02:47:19;;;;;;;2.75;1.40;;;;;;;13.67;82.56;100820.13;1695615;84;21062;-60
2022/07/18 02:49:48;;;;;;;2.52;1.70;;;;;;;13.66;82.56;100819.27;1696171;84;21038;-59
2022/07/18 02:52:17;;;;;;;5.50;1.70;;;;;;;13.65;82.60;100823.05;1696287;84;21062;-59
2022/07/18 02:54:47;;;;;;;2.77;1.57;;;;;;;13.68;82.60;100813.02;1696168;84;21086;-58
2022/07/18 02:57:17;;;;;;;2.92;1.32;;;;;;;13.71;82.55;100813.14;1700771;83;21086;-58
2022/07/18 02:59:47;;;;;;;2.85;1.40;;;;;;;13.74;82.48;100810.81;1695301;83;21030;-59
2022/07/18 03:02:17;;;;;;;1.55;1.40;;;;;;;13.76;82.30;100805.09;1703325;84;21454;-58
2022/07/18 03:04:47;;;;;;;2.15;1.50;;;;;;;13.78;82.27;100812.09;1703126;84;21078;-59
2022/07/18 03:07:17;;;;;;;2.30;1.42;;;;;;;13.80;82.24;100824.28;1703177;84;21030;-58
2022/07/18 03:09:46;;;;;;;1.37;1.22;;;;;;;13.83;82.11;100827.47;1703376;84;21100;-58
2022/07/18 03:12:16;;;;;;;4.12;1.40;;;;;;;13.88;81.97;100829.06;1703061;84;21076;-59
2022/07/18 03:14:45;;;;;;;5.50;1.67;;;;;;;13.89;81.80;100829.92;1703372;84;21094;-59
2022/07/18 03:17:14;;;;;;;4.97;1.50;;;;;;;13.90;81.81;100835.75;1703285;84;21066;-59
2022/07/18 03:19:44;;;;;;;1.77;1.30;;;;;;;13.92;81.84;100835.01;1719658;83;21057;-59
2022/07/18 03:22:14;;;;;;;3.20;1.30;;;;;;;13.95;81.63;100834.59;1703096;84;21572;-58
2022/07/18 03:24:44;;;;;;;2.37;1.50;;;;;;;13.98;81.51;100834.70;1703217;84;21046;-60
2022/07/18 03:27:15;;;;;;;4.12;1.67;;;;;;;13.97;81.49;100842.12;1703163;84;21070;-58
2022/07/18 03:29:44;;;;;;;2.75;1.40;;;;;;;13.98;81.47;100849.33;1703037;84;21025;-60
2022/07/18 03:32:14;;;;;;;2.17;1.42;;;;;;;13.99;81.39;100859.28;1703271;83;21073;-59
2022/07/18 03:34:43;;;;;;;4.00;1.32;;;;;;;14.00;81.15;100856.85;1703356;84;21453;-60
2022/07/18 03:37:13;;;;;;;3.35;1.55;;;;;;;14.01;80.99;100860.45;1703247;84;21268;-58
2022/07/18 03:39:43;;;;;;;4.33;1.57;;;;;;;14.02;81.00;100856.11;1701190;83;21101;-58
2022/07/18 03:42:12;;;;;;;4.15;2.02;;;;;;;14.05;80.87;100861.20;1699672;83;21010;-59
2022/07/18 03:44:42;;;;;;;6.20;1.70;;;;;;;14.07;80.84;100863.75;1703316;84;21577;-59
2022/07/18 03:47:14;;;;;;;2.80;1.17;;;;;;;14.13;80.75;100859.63;1703494;84;21093;-58
2022/07/18 03:49:49;;;;;;;1.92;1.57;;;;;;;14.18;80.46;100856.24;1698856;84;21086;-58
2022/07/18 03:52:20;;;;;;;2.72;1.60;;;;;;;14.22;80.30;100859.75;1716161;83;21066;-59
2022/07/18 03:54:50;;;;;;;3.27;1.30;;;;;;;14.26;79.94;100862.40;1695779;84;21078;-57
2022/07/18 03:57:20;;;;;;;3.55;1.52;;;;;;;14.29;79.66;100863.89;1695847;84;21066;-59
2022/07/18 03:59:50;;;;;;;5.10;1.50;;;;;;;14.29;79.37;100863.89;1711250;83;21439;-59
2022/07/18 04:02:20;;;;;;;3.02;1.57;;;;;;;14.33;79.17;100862.97;1727653;83;21070;-59
2022/07/18 04:04:50;;;;;;;3.27;1.50;;;;;;;14.34;78.99;100861.38;1717927;83;21113;-60
2022/07/18 04:07:20;;;;;;;3.42;1.55;;;;;;;14.37;78.96;100857.34;1703076;84;21054;-60
2022/07/18 04:09:50;;;;;;;3.10;1.47;;;;;;;14.39;78.92;100859.36;1703205;84;21062;-59
2022/07/18 04:12:20;;;;;;;3.37;1.40;;;;;;;14.38;78.47;100864.03;1703141;84;21038;-59
2022/07/18 04:14:49;;;;;;;2.17;1.40;;;;;;;14.35;78.38;100856.19;1703353;84;21423;-60
2022/07/18 04:17:21;;;;;;;2.33;1.32;;;;;;;14.37;78.52;100851.84;1709990;83;21070;-59
2022/07/18 04:19:51;;;;;;;2.27;1.50;;;;;;;14.38;78.34;100859.89;1726966;83;21049;-58
2022/07/18 04:22:22;;;;;;;1.80;1.47;;;;;;;14.41;78.66;100858.09;1727971;83;21073;-58
2022/07/18 04:24:52;;;;;;;4.55;1.87;;;;;;;14.48;78.65;100856.75;1727527;83;21097;-58
2022/07/18 04:27:22;;;;;;;3.70;1.52;;;;;;;14.53;78.47;100859.19;1727971;83;21422;-58
2022/07/18 04:29:53;;;;;;;3.12;1.30;;;;;;;14.59;78.42;100855.58;1727735;83;21046;-59
2022/07/18 04:32:23;;;;;;;3.45;1.30;;;;;;;14.66;78.02;100854.72;1727591;83;21431;-58
2022/07/18 04:34:52;;;;;;;2.42;1.70;;;;;;;14.68;77.82;100856.20;1727652;83;21512;-58
2022/07/18 04:37:22;;;;;;;7.58;1.70;;;;;;;14.72;77.84;100860.23;1722038;83;21019;-59
2022/07/18 04:39:52;;;;;;;5.15;1.87;;;;;;;14.76;77.64;100860.66;1725153;82;21070;-58
2022/07/18 04:42:22;;;;;;;2.17;1.60;;;;;;;14.79;77.62;100866.59;1727755;83;21082;-60
2022/07/18 04:44:53;;;;;;;2.55;1.57;;;;;;;14.85;77.66;100867.11;1727730;83;21459;-59
2022/07/18 04:47:22;;;;;;;3.95;1.45;;;;;;;14.95;77.54;100863.06;1725860;83;21034;-59
2022/07/18 04:49:54;;;;;;;3.45;1.65;;;;;;;15.02;77.42;100872.21;1696830;83;21516;-60
2022/07/18 04:52:24;;;;;;;2.50;1.60;;;;;;;15.08;77.35;100869.97;1695667;84;21046;-59
2022/07/18 04:54:54;;;;;;;2.52;1.75;;;;;;;15.14;77.12;100869.10;1695505;84;21102;-60
2022/07/18 04:57:24;;;;;;;4.80;2.12;;;;;;;15.17;77.00;100865.38;1695460;84;21455;-59
2022/07/18 04:59:54;;;;;;;3.95;1.60;;;;;;;15.24;76.87;100866.73;1704876;83;21034;-61
2022/07/18 05:02:24;;;;;;;3.80;2.70;;;;;;;15.34;76.83;100869.89;1703111;84;21069;-58
2022/07/18 05:04:55;;;;;;;5.85;2.33;;;;;;;15.45;76.39;100868.36;1698367;83;21548;-59
2022/07/18 05:07:25;;;;;;;3.92;2.10;;;;;;;15.59;76.09;100867.81;1695655;84;21030;-60
2022/07/18 05:09:55;;;;;;;5.78;2.00;;;;;;;15.82;75.69;100868.16;1695641;84;21011;-59
2022/07/18 05:12:24;;;;;;;5.42;1.90;;;;;;;16.11;74.91;100872.23;1695657;84;21042;-60
2022/07/18 05:14:54;;;;;;;2.40;1.65;;;;;;;16.43;74.04;100866.19;1716612;83;21066;-58
2022/07/18 05:17:27;;;;;;;7.37;2.65;;;;;;;16.73;71.97;100870.00;1727815;83;21007;-59
2022/07/18 05:19:57;;;;;;;7.08;2.00;;;;;;;16.96;71.04;100874.08;1727798;83;21085;-60
2022/07/18 05:22:27;;;;;;;7.87;2.75;;;;;;;17.26;70.59;100865.33;1727586;83;21062;-59
2022/07/18 05:24:57;;;;;;;2.25;1.70;;;;;;;17.59;69.34;100873.82;1727610;83;21482;-58
2022/07/18 05:27:26;;;;;;;4.00;1.70;;;;;;;17.89;68.32;100860.86;1727882;83;20995;-60
2022/07/18 05:29:55;;;;;;;6.62;1.98;;;;;;;18.23;66.81;100852.39;1700505;83;21442;-59
2022/07/18 05:32:27;;;;;;;4.40;1.82;;;;;;;18.51;65.46;100863.37;1695596;84;21058;-60
2022/07/18 05:34:56;;;;;;;6.33;2.02;;;;;;;18.78;64.31;100857.70;1720628;83;21026;-59
2022/07/18 05:37:26;;;;;;;5.08;2.20;;;;;;;19.03;63.37;100858.88;1714020;83;21221;-59
2022/07/18 05:39:56;;;;;;;4.72;1.77;;;;;;;19.21;61.52;100864.84;1703413;84;21010;-61
2022/07/18 05:42:26;;;;;;;3.55;2.00;;;;;;;19.36;61.18;100867.11;1708052;84;21045;-60
2022/07/18 05:44:58;;;;;;;4.50;1.90;;;;;;;19.50;59.57;100861.58;1707378;84;21050;-58
2022/07/18 05:47:29;;;;;;;2.83;1.85;;;;;;;19.55;59.89;100863.98;1708131;84;21066;-59
2022/07/18 05:49:59;;;;;;;3.95;1.85;;;;;;;19.65;59.37;100868.92;1708411;84;21037;-60
2022/07/18 05:52:29;;;;;;;8.23;3.08;;;;;;;19.72;59.46;100860.44;1674943;86;21487;-60
2022/07/18 05:55:01;;;;;;;5.87;2.27;;;;;;;19.78;58.75;100857.51;1706845;82;21515;-59
2022/07/18 05:57:32;;;;;;;2.87;1.82;;;;;;;19.95;58.52;100855.62;1708248;84;21030;-59
2022/07/18 06:00:07;;;;;;;3.58;2.10;;;;;;;20.21;58.44;100865.33;1683915;83;21136;-59
2022/07/18 06:02:38;;;;;;;6.80;2.20;;;;;;;20.56;57.07;100860.13;1701154;84;21038;-59
2022/07/18 06:05:08;;;;;;;3.25;1.67;;;;;;;20.83;55.97;100864.50;1701218;84;21101;-60
2022/07/18 06:07:40;;;;;;;6.62;2.02;;;;;;;21.04;55.24;100868.45;1700582;84;21034;-60
2022/07/18 06:10:10;;;;;;;4.42;2.00;;;;;;;21.21;54.60;100867.86;1701063;84;21459;-60
2022/07/18 06:12:41;;;;;;;4.50;1.60;;;;;;;21.38;54.29;100860.88;1664883;84;21086;-60
2022/07/18 06:15:15;;;;;;;4.40;1.80;;;;;;;21.54;53.24;100860.02;1700562;84;21082;-59
2022/07/18 06:17:46;;;;;;;2.20;1.50;;;;;;;21.71;52.96;100862.19;1700658;84;21050;-59
2022/07/18 06:20:16;;;;;;;2.98;1.80;;;;;;;21.97;52.22;100855.50;1700389;84;21085;-60
2022/07/18 06:22:46;;;;;;;1.82;1.30;;;;;;;22.17;51.42;100852.99;1674202;84;21042;-59
2022/07/18 06:25:16;;;;;;;7.58;2.80;;;;;;;22.30;51.02;100851.72;1703113;84;21062;-60
2022/07/18 06:27:46;;;;;;;4.33;2.00;;;;;;;22.48;50.17;100856.08;1703429;84;21046;-59
2022/07/18 06:30:16;;;;;;;4.60;1.77;;;;;;;22.64;50.48;100852.31;1712544;82;21596;-58
2022/07/18 06:32:47;;;;;;;3.67;1.75;;;;;;;22.71;50.18;100855.72;1732286;82;21061;-60
2022/07/18 06:35:17;;;;;;;3.33;1.60;;;;;;;22.80;50.69;100869.55;1708272;84;21057;-60
2022/07/18 06:37:48;;;;;;;3.52;1.90;;;;;;;23.03;49.87;100859.93;1708322;84;21058;-61
2022/07/18 06:40:17;;;;;;;4.70;1.77;;;;;;;23.19;49.16;100855.28;1707815;84;21038;-59
2022/07/18 06:42:47;;;;;;;3.12;1.77;;;;;;;23.33;49.11;100856.48;1703063;84;21013;-60
2022/07/18 06:45:17;;;;;;;3.12;1.90;;;;;;;23.50;48.79;100850.72;1692838;84;21463;-59
2022/07/18 06:47:46;;;;;;;8.38;3.37;;;;;;;23.65;47.81;100853.06;1700782;83;21519;-59
2022/07/18 06:50:15;;;;;;;3.50;1.90;;;;;;;23.81;47.03;100848.92;1705931;83;21022;-59
2022/07/18 06:52:46;;;;;;;4.42;1.80;;;;;;;23.82;47.62;100852.84;1727057;83;20999;-59
2022/07/18 06:55:16;;;;;;;7.05;2.50;;;;;;;23.88;46.96;100848.10;1727625;83;21034;-59
2022/07/18 06:57:46;;;;;;;3.33;1.50;;;;;;;23.89;46.75;100855.38;1727633;83;21085;-58
2022/07/18 07:00:18;;;;;;;2.05;1.40;;;;;;;23.98;46.13;100852.33;1724738;83;21434;-60
2022/07/18 07:02:49;;;;;;;3.72;1.62;;;;;;;24.04;46.03;100847.03;1727763;83;20998;-59
2022/07/18 07:05:19;;;;;;;4.53;2.37;;;;;;;24.03;45.86;100846.75;1727721;83;21066;-61
2022/07/18 07:07:50;;;;;;;4.75;2.22;;;;;;;24.11;45.20;100857.44;1727694;83;21031;-60
2022/07/18 07:10:20;;;;;;;4.47;1.75;;;;;;;24.08;45.44;100850.98;1727523;83;21059;-59
2022/07/18 07:12:52;;;;;;;5.50;2.15;;;;;;;24.14;46.18;100851.84;1699793;83;21062;-59
2022/07/18 07:15:23;;;;;;;3.65;1.67;;;;;;;24.27;46.00;100849.94;1703250;84;21085;-59
2022/07/18 07:17:53;;;;;;;4.67;1.47;;;;;;;24.36;46.46;100851.07;1703504;83;21046;-61
2022/07/18 07:20:22;;;;;;;7.03;1.70;;;;;;;24.61;45.64;100853.05;1703173;84;21077;-61
2022/07/18 07:22:53;;;;;;;3.52;1.67;;;;;;;24.74;44.00;100855.31;1703241;84;21070;-58
2022/07/18 07:25:25;;;;;;;6.60;1.52;;;;;;;24.74;44.21;100850.27;1703265;84;21100;-57
2022/07/18 07:27:55;;;;;;;2.27;1.45;;;;;;;24.88;43.97;100841.56;1716255;83;21046;-60
2022/07/18 07:30:25;;;;;;;2.83;1.30;;;;;;;25.12;43.31;100851.66;1727852;83;21127;-60
2022/07/18 07:32:55;;;;;;;4.17;1.52;;;;;;;25.23;42.51;100852.75;1710787;83;21074;-60
2022/07/18 07:35:25;;;;;;;4.58;1.27;;;;;;;25.28;42.27;100854.70;1702274;84;21078;-59
2022/07/18 07:37:56;;;;;;;3.50;1.35;;;;;;;25.44;41.50;100844.30;1723842;83;21125;-60
2022/07/18 07:40:28;;;;;;;7.03;1.57;;;;;;;25.63;41.26;100845.91;1727772;83;21054;-60
2022/07/18 07:43:12;;;;;;;3.12;1.27;;;;;;;25.78;41.30;100849.53;1727627;83;20991;-59
2022/07/18 07:45:42;;;;;;;2.37;1.27;;;;;;;25.94;40.67;100850.28;1727566;83;21062;-60
2022/07/18 07:48:12;;;;;;;3.30;1.00;;;;;;;26.05;39.91;100853.34;1727553;83;21070;-60
2022/07/18 07:50:42;;;;;;;3.65;1.20;;;;;;;25.99;39.69;100848.02;1716074;83;21062;-60
2022/07/18 07:53:11;;;;;;;2.30;1.32;;;;;;;26.10;39.62;100843.48;1696380;83;21002;-60
2022/07/18 07:55:41;;;;;;;6.05;2.05;;;;;;;25.92;39.41;100853.95;1700834;83;21121;-60
2022/07/18 07:58:11;;;;;;;2.05;1.40;;;;;;;25.67;39.95;100854.07;1727780;83;21038;-60
2022/07/18 08:00:42;;;;;;;3.17;1.45;;;;;;;25.56;39.96;100855.48;1719840;83;21038;-61
2022/07/18 08:03:12;;;;;;;4.40;1.40;;;;;;;25.50;40.17;100853.83;1722285;83;21050;-60
2022/07/18 08:05:49;;;;;;;4.20;1.47;;;;;;;25.44;40.46;100849.35;1695697;84;21126;-60
2022/07/18 08:08:20;;;;;;;2.52;1.50;;;;;;;25.48;40.49;100846.25;1695640;83;21003;-60
2022/07/18 08:10:49;;;;;;;3.60;1.22;;;;;;;25.42;39.87;100853.01;1699589;83;21046;-61
2022/07/18 08:13:20;;;;;;;2.02;1.30;;;;;;;25.14;39.55;100853.61;1703326;84;21508;-59
2022/07/18 08:15:51;;;;;;;2.20;1.20;;;;;;;24.93;39.71;100855.02;1705025;83;21034;-59
2022/07/18 08:18:22;;;;;;;2.22;1.22;;;;;;;24.84;40.36;100842.69;1703386;84;21098;-63
2022/07/18 08:20:51;;;;;;;5.20;1.60;;;;;;;24.72;40.48;100843.55;1699112;84;21090;-61
2022/07/18 08:23:21;;;;;;;2.67;1.17;;;;;;;24.61;40.91;100841.27;1700598;83;21022;-61
2022/07/18 08:25:55;;;;;;;2.62;1.00;;;;;;;24.68;40.57;100840.99;1702942;83;21073;-60
2022/07/18 08:28:25;;;;;;;5.00;1.32;;;;;;;24.73;39.81;100841.02;1726719;83;21073;-59
2022/07/18 08:30:55;;;;;;;4.40;1.10;;;;;;;24.74;40.24;100845.51;1702964;83;21106;-60
2022/07/18 08:33:26;;;;;;;2.27;1.07;;;;;;;24.86;40.29;100844.66;1712062;82;21070;-61
2022/07/18 08:35:55;;;;;;;2.35;1.10;;;;;;;25.08;39.38;100838.77;1727696;83;21492;-62
2022/07/18 08:38:25;;;;;;;2.33;0.82;;;;;;;25.10;38.76;100844.09;1727499;83;21085;-62
2022/07/18 08:41:13;;;;;;;4.35;1.40;;;;;;;24.96;39.34;100846.60;1727523;83;21105;-61
2022/07/18 08:43:58;;;;;;;2.10;1.15;;;;;;;24.80;39.73;100843.54;1727563;83;21549;-62
2022/07/18 08:46:27;;;;;;;5.17;1.27;;;;;;;24.77;40.01;100844.11;1722170;83;21066;-61
2022/07/18 08:48:57;;;;;;;5.72;1.50;;;;;;;24.84;39.78;100844.66;1690454;84;21467;-61
2022/07/18 08:51:27;;;;;;;1.15;0.90;;;;;;;24.89;39.56;100847.45;1701289;83;21475;-62
2022/07/18 08:53:56;;;;;;;1.12;0.80;;;;;;;24.78;39.48;100853.63;1703084;83;21002;-61
2022/07/18 08:56:27;;;;;;;3.70;1.00;;;;;;;24.59;39.46;100856.12;1710117;83;21621;-62
2022/07/18 08:58:56;;;;;;;2.77;0.90;;;;;;;24.59;40.10;100848.28;1727334;83;21039;-63
2022/07/18 09:01:27;;;;;;;1.30;0.72;;;;;;;24.71;39.57;100848.87;1727806;83;21054;-62
2022/07/18 09:04:16;;;;;;;1.00;0.88;;;;;;;24.68;38.39;100840.99;1706900;83;21089;-61
2022/07/18 09:06:50;;;;;;;1.62;0.88;;;;;;;24.57;38.16;100844.92;1703076;84;21066;-60
2022/07/18 09:09:20;;;;;;;3.60;1.15;;;;;;;24.52;38.61;100842.95;1702943;84;21713;-62
2022/07/18 09:12:01;;;;;;;1.95;0.72;;;;;;;24.65;38.38;100833.98;1709401;83;21082;-63
2022/07/18 09:14:39;;;;;;;1.40;0.85;;;;;;;24.85;37.41;100832.32;1727620;83;21451;-55
2022/07/18 09:17:21;;;;;;;2.35;0.90;;;;;;;24.93;37.55;100842.96;1725791;83;21455;-57
2022/07/18 09:20:14;;;;;;;1.17;0.78;;;;;;;24.82;39.15;100840.73;1710695;83;20982;-56
2022/07/18 09:22:48;;;;;;;3.33;1.40;;;;;;;24.60;38.79;100835.39;1727760;83;21030;-57
2022/07/18 09:25:20;;;;;;;1.87;0.90;;;;;;;24.39;39.20;100831.46;1727565;83;21090;-54
2022/07/18 09:27:52;;;;;;;2.15;0.70;;;;;;;24.40;39.39;100832.58;1727632;83;21086;-57
2022/07/18 09:30:34;;;;;;;2.45;0.90;;;;;;;24.45;39.21;100831.19;1727648;83;21054;-56
2022/07/18 09:33:08;;;;;;;2.20;0.65;;;;;;;24.53;38.97;100832.59;1727655;83;21423;-56
2022/07/18 09:35:45;;;;;;;29.25;2.15;;;;;;;24.49;38.93;100835.67;1726654;83;21462;-56
2022/07/18 09:38:21;;;;;;;3.87;1.10;;;;;;;24.41;38.61;100832.86;1727522;83;21430;-57
2022/07/18 09:40:53;;;;;;;0.85;0.62;;;;;;;24.37;38.61;100833.70;1706030;83;21419;-57
2022/07/18 09:43:29;;;;;;;2.22;1.00;;;;;;;24.24;38.45;100831.70;1696175;83;21054;-57
2022/07/18 09:46:02;;;;;;;2.62;0.80;;;;;;;24.08;39.80;100832.80;1696388;84;21082;-60
2022/07/18 09:48:31;;;;;;;4.20;0.65;;;;;;;23.89;40.35;100829.64;1669700;84;21089;-61
2022/07/18 09:51:05;;;;;;;1.40;0.70;;;;;;;23.82;39.69;100824.02;1696272;84;21327;-62
2022/07/18 09:53:48;;;;;;;1.98;0.90;;;;;;;23.78;39.83;100825.69;1694492;84;21075;-62
2022/07/18 09:56:25;;;;;;;1.87;0.60;;;;;;;23.76;40.48;100816.72;1667364;86;21075;-62
2022/07/18 09:58:57;;;;;;;1.85;0.50;;;;;;;23.79;39.78;100825.41;1690148;84;21038;-63
2022/07/18 10:01:39;;;;;;;1.42;0.80;;;;;;;23.81;37.91;100836.33;1732169;82;21081;-63
2022/07/18 10:04:11;;;;;;;2.10;1.02;;;;;;;23.85;37.80;100827.66;1732300;82;21022;-64
2022/07/18 10:06:42;;;;;;;2.72;1.20;;;;;;;23.90;38.57;100827.67;1732255;82;21061;-61
2022/07/18 10:09:14;;;;;;;1.27;0.70;;;;;;;23.84;38.69;100827.38;1730885;83;21077;-62
2022/07/18 10:11:44;;;;;;;1.00;0.68;;;;;;;23.68;38.98;100838.52;1727500;83;21050;-64
2022/07/18 10:14:14;;;;;;;2.33;0.72;;;;;;;23.53;38.76;100831.44;1727524;83;21304;-62
2022/07/18 10:16:44;;;;;;;1.07;0.70;;;;;;;23.42;39.42;100826.91;1727630;83;21478;-62
2022/07/18 10:19:15;;;;;;;2.25;0.60;;;;;;;23.40;39.63;100839.73;1727554;83;21150;-61
2022/07/18 10:21:49;;;;;;;2.50;0.60;;;;;;;23.37;38.98;100831.05;1727845;83;21069;-62
2022/07/18 10:24:18;;;;;;;2.00;0.60;;;;;;;23.37;38.72;100834.69;1727555;83;21031;-62
2022/07/18 10:27:19;;;;;;;1.70;0.80;;;;;;;23.44;38.90;100824.69;1720516;83;21058;-62
2022/07/18 10:30:12;;;;;;;0.78;0.60;;;;;;;23.54;38.27;100812.70;1703061;84;21576;-61
2022/07/18 10:32:42;;;;;;;1.40;0.60;;;;;;;23.58;37.80;100817.50;1698794;84;21003;-63
2022/07/18 10:35:14;;;;;;;3.60;0.90;;;;;;;23.62;38.34;100817.23;1697280;84;21058;-63
2022/07/18 10:37:44;;;;;;;2.87;0.60;;;;;;;23.72;38.68;100812.23;1677725;84;21082;-63
2022/07/18 10:40:28;;;;;;;1.62;0.62;;;;;;;23.76;38.29;100820.36;1697020;84;21212;-64
2022/07/18 10:43:33;;;;;;;1.02;0.70;;;;;;;23.68;37.61;100815.30;1697073;84;21435;-61
2022/07/18 10:46:04;;;;;;;1.45;0.70;;;;;;;23.57;37.68;100821.97;1666935;86;21050;-63
2022/07/18 10:48:40;;;;;;;2.67;0.80;;;;;;;23.50;37.83;100802.61;1647815;87;21452;-61
2022/07/18 10:51:19;;;;;;;1.82;0.70;;;;;;;23.54;38.07;100809.34;1647872;87;21499;-62
2022/07/18 10:53:58;;;;;;;;;;;;;;;23.57;38.02;100817.22;1638519;85;21149;-63
2022/07/18 10:56:40;;;;;;;0.47;0.47;;;;;;;23.51;38.50;100820.23;1676335;85;20158;-62
2022/07/18 10:59:28;;;;;;;2.60;0.70;;;;;;;23.41;38.92;100822.44;1701859;83;21907;-60
2022/07/18 11:01:57;;;;;;;4.22;1.45;;;;;;;23.35;38.17;100812.30;1693038;84;21082;-62
2022/07/18 11:04:38;;;;;;;2.12;1.20;;;;;;;23.33;38.44;100815.94;1676343;85;21633;-62
2022/07/18 11:07:14;;;;;;;0.80;0.60;;;;;;;23.34;38.45;100807.83;1676618;85;21063;-66
2022/07/18 11:09:46;;;;;;;1.07;0.60;;;;;;;23.38;38.19;100801.97;1665080;85;21091;-62
2022/07/18 11:12:30;;;;;;;1.67;1.00;;;;;;;23.42;38.32;100803.70;1699466;84;21043;-62
2022/07/18 11:15:04;;;;;;;2.15;0.70;;;;;;;23.43;38.66;100810.42;1700076;84;21027;-63
2022/07/18 11:17:59;;;;;;;1.23;0.90;;;;;;;23.42;39.15;100813.48;1700518;84;21044;-62
2022/07/18 11:20:37;;;;;;;2.62;0.80;;;;;;;23.45;39.33;100803.15;1658517;85;21936;-61
2022/07/18 11:23:17;;;;;;;1.10;0.60;;;;;;;23.52;39.16;100803.18;1658650;85;21048;-62
2022/07/18 11:25:47;;;;;;;3.55;0.70;;;;;;;23.54;38.17;100791.72;1662290;86;21058;-62
2022/07/18 11:28:19;;;;;;;1.50;0.85;;;;;;;23.52;38.03;100801.78;1662662;85;21123;-61
2022/07/18 11:31:07;;;;;;;1.67;0.80;;;;;;;23.52;37.89;100797.59;1679613;84;21114;-62
2022/07/18 11:33:43;;;;;;;1.80;0.70;;;;;;;23.52;38.14;100787.80;1662226;85;21074;-63
2022/07/18 11:36:17;;;;;;;2.50;0.53;;;;;;;23.51;38.24;100795.91;1661965;85;21648;-64
2022/07/18 11:38:57;;;;;;;2.67;1.00;;;;;;;23.50;38.44;100794.78;1662813;84;21051;-62
2022/07/18 11:41:28;;;;;;;2.92;0.60;;;;;;;23.45;38.10;100793.36;1662664;86;21495;-62
2022/07/18 11:43:59;;;;;;;1.25;0.60;;;;;;;23.42;38.42;100793.34;1667492;86;21019;-61
2022/07/18 11:46:29;;;;;;;1.47;0.60;;;;;;;23.38;38.14;100800.57;1668281;86;21083;-63
2022/07/18 11:49:03;;;;;;;1.35;0.53;;;;;;;23.26;37.56;100797.16;1668036;86;21046;-62